Time;durP1;ratioP1;P1;durP2;ratioP2;P2;SDS_P1;SDS_P2;PMS_P1;PMS_P2;Temp;Humidity;BMP_temperature;BMP_pressure;BME280_temperature;BME280_humidity;BME280_pressure;Samples;Min_cycle;Max_cycle;Signal;HPM_P1;HPM_P2
2021/07/05 00:01:54;;;;;;;17.98;11.85;;;;;;;19.14;100.00;99292.80;1688527;84;21075;-81
2021/07/05 00:04:21;;;;;;;22.70;11.68;;;;;;;19.12;100.00;99297.41;1691017;84;21083;-82
2021/07/05 00:06:48;;;;;;;15.32;11.18;;;;;;;19.13;100.00;99291.58;1691036;84;21112;-80
2021/07/05 00:09:14;;;;;;;15.38;10.63;;;;;;;19.13;100.00;99292.91;1719508;83;21140;-79
2021/07/05 00:11:41;;;;;;;21.25;11.03;;;;;;;19.15;100.00;99285.63;1719872;83;21080;-79
2021/07/05 00:14:10;;;;;;;16.35;10.55;;;;;;;19.17;100.00;99294.35;1690785;84;21087;-80
2021/07/05 00:16:37;;;;;;;15.03;10.95;;;;;;;19.19;100.00;99293.73;1720118;83;21101;-79
2021/07/05 00:19:04;;;;;;;14.80;10.40;;;;;;;19.19;100.00;99300.41;1689489;84;21013;-81
2021/07/05 00:21:31;;;;;;;16.40;9.73;;;;;;;19.17;100.00;99300.53;1689337;84;21509;-79
2021/07/05 00:24:00;;;;;;;13.55;7.55;;;;;;;19.18;100.00;99298.70;1719327;83;21583;-80
2021/07/05 00:26:27;;;;;;;15.10;8.53;;;;;;;19.18;100.00;99302.70;1690687;84;21099;-77
2021/07/05 00:28:54;;;;;;;12.45;8.63;;;;;;;19.16;100.00;99301.48;1685277;85;20996;-80
2021/07/05 00:31:22;;;;;;;13.30;10.32;;;;;;;19.14;100.00;99309.27;1685261;85;21542;-81
2021/07/05 00:33:49;;;;;;;12.85;9.35;;;;;;;19.13;100.00;99303.59;1742152;81;21097;-78
2021/07/05 00:36:17;;;;;;;18.40;10.03;;;;;;;19.11;100.00;99310.88;1741900;82;21073;-80
2021/07/05 00:38:45;;;;;;;12.82;10.32;;;;;;;19.06;100.00;99307.27;1741785;82;21038;-77
2021/07/05 00:41:12;;;;;;;17.87;11.05;;;;;;;19.03;100.00;99301.70;1742087;82;21469;-79
2021/07/05 00:43:39;;;;;;;24.00;10.75;;;;;;;19.01;100.00;99300.99;1741783;82;21593;-80
2021/07/05 00:46:06;;;;;;;14.65;10.10;;;;;;;18.98;100.00;99293.26;1741966;82;21120;-78
2021/07/05 00:48:33;;;;;;;16.20;10.82;;;;;;;18.97;100.00;99294.22;1742221;82;21097;-80
2021/07/05 00:51:00;;;;;;;14.80;10.13;;;;;;;18.95;100.00;99289.99;1741764;82;21060;-79
2021/07/05 00:53:27;;;;;;;22.40;11.73;;;;;;;18.96;100.00;99283.70;1742050;82;21105;-80
2021/07/05 00:55:54;;;;;;;19.05;11.65;;;;;;;18.94;100.00;99283.81;1741995;82;21049;-79
2021/07/05 00:58:21;;;;;;;15.30;11.10;;;;;;;18.92;100.00;99285.77;1742362;82;21090;-79
2021/07/05 01:00:48;;;;;;;17.48;11.93;;;;;;;18.88;100.00;99283.00;1742168;82;20998;-80
2021/07/05 01:03:15;;;;;;;15.83;10.60;;;;;;;18.85;100.00;99284.60;1742168;82;21540;-77
2021/07/05 01:05:42;;;;;;;19.98;11.73;;;;;;;18.83;100.00;99285.22;1742120;82;21101;-77
2021/07/05 01:08:09;;;;;;;15.83;11.15;;;;;;;18.80;100.00;99286.82;1742030;82;21037;-77
2021/07/05 01:10:36;;;;;;;13.70;10.48;;;;;;;18.78;100.00;99280.77;1742017;82;21002;-77
2021/07/05 01:13:03;;;;;;;15.93;11.15;;;;;;;18.77;100.00;99288.39;1741895;82;21644;-77
2021/07/05 01:15:32;;;;;;;16.35;10.30;;;;;;;18.76;100.00;99283.52;1742133;82;21097;-77
2021/07/05 01:18:01;;;;;;;17.50;11.20;;;;;;;18.77;100.00;99284.39;1741772;82;21064;-78
2021/07/05 01:20:30;;;;;;;16.05;11.03;;;;;;;18.76;100.00;99276.02;1741418;82;21128;-78
2021/07/05 01:22:57;;;;;;;15.10;10.75;;;;;;;18.76;100.00;99272.02;1740130;82;21437;-78
2021/07/05 01:25:26;;;;;;;23.32;12.45;;;;;;;18.75;100.00;99279.64;1676499;85;21561;-77
2021/07/05 01:27:53;;;;;;;17.00;10.72;;;;;;;18.73;100.00;99278.95;1693525;84;22095;-77
2021/07/05 01:30:20;;;;;;;18.85;11.70;;;;;;;18.73;100.00;99281.61;1678152;85;21147;-78
2021/07/05 01:32:48;;;;;;;15.70;11.65;;;;;;;18.71;100.00;99279.06;1714952;81;21116;-78
2021/07/05 01:35:15;;;;;;;18.85;12.98;;;;;;;18.70;100.00;99277.85;1681022;85;21125;-79
2021/07/05 01:37:43;;;;;;;15.83;12.07;;;;;;;18.69;100.00;99273.51;1717989;83;21049;-81
2021/07/05 01:40:15;;;;;;;20.20;12.73;;;;;;;18.69;100.00;99282.84;1681077;85;21055;-82
2021/07/05 01:42:40;;;;;;;21.97;11.45;;;;;;;18.68;100.00;99277.13;1718025;83;21014;-84
2021/07/05 01:45:10;;;;;;;18.00;12.43;;;;;;;18.66;100.00;99275.95;1718163;83;21061;-83
2021/07/05 01:47:37;;;;;;;21.30;11.90;;;;;;;18.66;100.00;99275.45;1681225;85;21131;-81
2021/07/05 01:50:05;;;;;;;19.00;12.30;;;;;;;18.68;100.00;99282.47;1718012;83;21029;-80
2021/07/05 01:52:32;;;;;;;18.82;12.37;;;;;;;18.68;100.00;99278.00;1718149;83;21081;-79
2021/07/05 01:54:59;;;;;;;12.40;9.65;;;;;;;18.70;100.00;99283.19;1681101;85;21037;-80
2021/07/05 01:57:26;;;;;;;18.42;10.80;;;;;;;18.70;100.00;99289.36;1718172;83;21572;-79
2021/07/05 01:59:58;;;;;;;14.98;11.22;;;;;;;18.69;100.00;99290.34;1702735;83;21101;-79
2021/07/05 02:02:26;;;;;;;16.85;11.73;;;;;;;18.70;100.00;99292.52;1747946;82;21045;-80
2021/07/05 02:04:53;;;;;;;20.45;12.00;;;;;;;18.73;100.00;99304.28;1747695;81;21100;-79
2021/07/05 02:07:20;;;;;;;21.82;12.95;;;;;;;18.76;100.00;99309.35;1748045;82;21347;-80
2021/07/05 02:09:47;;;;;;;16.77;11.95;;;;;;;18.76;100.00;99312.02;1747979;82;21070;-81
2021/07/05 02:12:14;;;;;;;17.32;11.85;;;;;;;18.77;100.00;99316.39;1747751;82;21403;-80
2021/07/05 02:14:43;;;;;;;19.30;11.40;;;;;;;18.79;100.00;99318.45;1748162;82;21054;-81
2021/07/05 02:17:11;;;;;;;13.70;12.05;;;;;;;18.79;100.00;99311.78;1748010;81;21500;-81
2021/07/05 02:19:39;;;;;;;15.65;11.68;;;;;;;18.81;100.00;99319.17;1747812;82;21053;-79
2021/07/05 02:22:06;;;;;;;17.35;12.25;;;;;;;18.80;100.00;99317.00;1747749;82;21018;-81
2021/07/05 02:24:34;;;;;;;15.75;12.23;;;;;;;18.82;100.00;99320.88;1747931;82;21970;-79
2021/07/05 02:27:01;;;;;;;20.05;12.15;;;;;;;18.84;100.00;99324.23;1747827;82;21630;-82
2021/07/05 02:29:29;;;;;;;23.40;12.50;;;;;;;18.86;100.00;99318.29;1748032;81;21658;-80
2021/07/05 02:31:56;;;;;;;15.80;11.50;;;;;;;18.88;100.00;99316.84;1747877;82;21050;-80
2021/07/05 02:34:23;;;;;;;20.70;12.75;;;;;;;18.91;100.00;99328.11;1747739;81;22325;-81
2021/07/05 02:36:50;;;;;;;17.67;12.20;;;;;;;18.94;100.00;99328.33;1747900;82;21046;-81
2021/07/05 02:39:18;;;;;;;14.55;11.18;;;;;;;18.96;100.00;99331.72;1747845;82;21038;-81
2021/07/05 02:41:46;;;;;;;15.35;12.18;;;;;;;18.98;100.00;99327.08;1747801;82;21608;-82
2021/07/05 02:44:12;;;;;;;15.50;10.50;;;;;;;19.02;100.00;99326.69;1747858;82;21093;-81
2021/07/05 02:46:40;;;;;;;18.80;12.15;;;;;;;19.05;100.00;99331.78;1747817;82;21057;-80
2021/07/05 02:49:07;;;;;;;15.93;11.08;;;;;;;19.07;100.00;99331.63;1747865;82;21663;-78
2021/07/05 02:51:34;;;;;;;16.70;11.05;;;;;;;19.10;100.00;99333.22;1747469;82;21041;-79
2021/07/05 02:54:01;;;;;;;14.40;10.68;;;;;;;19.12;100.00;99332.57;1748177;82;21093;-81
2021/07/05 02:56:28;;;;;;;15.45;10.10;;;;;;;19.15;100.00;99334.50;1747926;82;21112;-81
2021/07/05 02:58:55;;;;;;;14.15;10.70;;;;;;;19.16;100.00;99332.67;1737299;81;21132;-80
2021/07/05 03:01:23;;;;;;;16.87;11.68;;;;;;;19.16;100.00;99329.51;1718617;82;22201;-78
2021/07/05 03:03:50;;;;;;;15.55;11.18;;;;;;;19.22;100.00;99330.83;1717917;82;21097;-79
2021/07/05 03:06:17;;;;;;;18.40;11.85;;;;;;;19.25;100.00;99343.90;1718302;83;21069;-79
2021/07/05 03:08:44;;;;;;;13.10;11.33;;;;;;;19.29;100.00;99341.33;1718217;83;21002;-78
2021/07/05 03:11:12;;;;;;;16.52;12.00;;;;;;;19.32;100.00;99342.39;1718021;83;21179;-79
2021/07/05 03:13:41;;;;;;;21.00;11.67;;;;;;;19.38;100.00;99345.04;1718331;83;21041;-79
2021/07/05 03:16:08;;;;;;;19.85;11.57;;;;;;;19.43;100.00;99337.47;1718451;83;21072;-79
2021/07/05 03:18:35;;;;;;;13.35;11.35;;;;;;;19.47;100.00;99347.75;1718357;83;21080;-79
2021/07/05 03:21:02;;;;;;;15.68;10.85;;;;;;;19.53;100.00;99338.84;1717962;83;21042;-74
2021/07/05 03:23:30;;;;;;;16.10;10.55;;;;;;;19.57;100.00;99333.60;1718137;83;21026;-74
2021/07/05 03:25:56;;;;;;;14.90;10.48;;;;;;;19.64;100.00;99330.75;1718182;83;21532;-73
2021/07/05 03:28:23;;;;;;;16.62;11.70;;;;;;;19.74;100.00;99323.67;1717994;83;21097;-75
2021/07/05 03:30:52;;;;;;;13.58;9.65;;;;;;;19.82;100.00;99318.48;1718178;83;21038;-74
2021/07/05 03:33:20;;;;;;;12.25;9.98;;;;;;;19.93;100.00;99319.38;1712871;83;21098;-75
2021/07/05 03:35:48;;;;;;;21.57;11.00;;;;;;;20.01;100.00;99316.84;1704681;84;21046;-74
2021/07/05 03:38:16;;;;;;;12.63;9.28;;;;;;;20.11;100.00;99320.41;1704489;84;21935;-74
2021/07/05 03:40:43;;;;;;;19.42;11.38;;;;;;;20.19;100.00;99320.54;1704614;84;21093;-75
2021/07/05 03:43:10;;;;;;;15.58;11.22;;;;;;;20.27;100.00;99319.38;1704544;84;21010;-75
2021/07/05 03:45:38;;;;;;;13.65;11.22;;;;;;;20.38;100.00;99322.39;1718917;82;21105;-74
2021/07/05 03:48:06;;;;;;;15.95;10.65;;;;;;;20.48;100.00;99310.39;1708710;82;21106;-76
2021/07/05 03:50:33;;;;;;;14.78;10.35;;;;;;;20.58;100.00;99311.25;1658978;85;21768;-74
2021/07/05 03:53:02;;;;;;;14.15;10.28;;;;;;;20.72;99.79;99318.84;1673322;85;21085;-75
2021/07/05 03:55:30;;;;;;;13.40;10.55;;;;;;;20.83;98.85;99313.02;1665025;85;21065;-78
2021/07/05 03:57:57;;;;;;;14.38;10.45;;;;;;;20.96;97.64;99309.55;1670752;84;21062;-80
2021/07/05 04:00:29;;;;;;;13.53;10.40;;;;;;;21.06;96.83;99312.20;1648440;85;21092;-78
2021/07/05 04:02:56;;;;;;;14.20;10.75;;;;;;;21.12;95.93;99312.48;1668353;85;22070;-79
2021/07/05 04:05:22;;;;;;;11.78;9.95;;;;;;;21.21;95.97;99316.59;1688711;84;21355;-77
2021/07/05 04:07:49;;;;;;;18.17;9.35;;;;;;;21.33;95.69;99303.41;1689783;84;21577;-79
2021/07/05 04:10:17;;;;;;;17.52;10.60;;;;;;;21.44;94.58;99308.63;1681515;84;21055;-79
2021/07/05 04:12:45;;;;;;;12.78;9.48;;;;;;;21.51;93.28;99310.19;1656774;85;21536;-80
2021/07/05 04:15:13;;;;;;;14.53;9.18;;;;;;;21.58;92.84;99310.81;1650761;85;21060;-78
2021/07/05 04:17:40;;;;;;;14.93;10.00;;;;;;;21.68;92.01;99299.21;1665744;86;21077;-79
2021/07/05 04:20:10;;;;;;;12.28;10.10;;;;;;;21.81;91.90;99301.53;1666105;84;21065;-77
2021/07/05 04:22:37;;;;;;;15.25;9.78;;;;;;;21.91;91.34;99306.36;1659998;85;21064;-82
2021/07/05 04:25:06;;;;;;;13.08;9.25;;;;;;;22.00;90.57;99302.28;1655449;85;21121;-82
2021/07/05 04:27:33;;;;;;;16.30;9.83;;;;;;;22.10;89.78;99304.05;1704438;84;21764;-82
2021/07/05 04:30:01;;;;;;;15.53;9.33;;;;;;;22.24;89.04;99292.00;1710961;82;21046;-82
2021/07/05 04:32:28;;;;;;;11.88;9.73;;;;;;;22.38;88.89;99298.17;1723681;82;21621;-82
2021/07/05 04:34:56;;;;;;;16.55;9.55;;;;;;;22.50;88.12;99306.83;1721257;81;21050;-81
2021/07/05 04:37:23;;;;;;;18.85;9.78;;;;;;;22.59;87.47;99302.75;1712563;83;21037;-81
2021/07/05 04:39:51;;;;;;;18.12;10.10;;;;;;;22.67;87.03;99304.66;1725343;80;21045;-81
2021/07/05 04:42:18;;;;;;;19.62;8.53;;;;;;;22.76;86.14;99309.09;1726322;82;21054;-81
2021/07/05 04:44:46;;;;;;;14.68;9.88;;;;;;;22.89;85.81;99308.70;1725471;82;21094;-80
2021/07/05 04:47:13;;;;;;;13.28;10.28;;;;;;;23.05;85.62;99309.33;1722321;82;21560;-81
2021/07/05 04:49:40;;;;;;;11.38;9.73;;;;;;;23.31;84.68;99311.20;1735170;82;21061;-80
2021/07/05 04:52:07;;;;;;;14.87;9.30;;;;;;;23.55;84.48;99319.39;1719656;82;21116;-80
2021/07/05 04:54:34;;;;;;;14.85;10.45;;;;;;;23.85;82.14;99321.24;1712324;83;21547;-82
2021/07/05 04:57:03;;;;;;;9.10;6.95;;;;;;;24.07;81.39;99316.63;1673937;84;21049;-81
2021/07/05 04:59:31;;;;;;;10.58;9.08;;;;;;;24.33;78.90;99315.67;1686878;84;21069;-82
2021/07/05 05:01:58;;;;;;;12.63;8.78;;;;;;;24.52;77.47;99310.52;1680526;84;21114;-83
2021/07/05 05:04:25;;;;;;;14.28;9.38;;;;;;;24.69;76.84;99312.23;1691944;84;21099;-81
2021/07/05 05:06:52;;;;;;;12.53;8.75;;;;;;;24.81;74.33;99312.73;1674402;84;21631;-82
2021/07/05 05:09:23;;;;;;;14.60;9.45;;;;;;;24.81;74.27;99311.38;1730486;81;21166;-82
2021/07/05 05:11:52;;;;;;;12.98;8.73;;;;;;;24.84;74.08;99312.38;1722514;82;21086;-81
2021/07/05 05:14:19;;;;;;;12.90;8.57;;;;;;;24.93;74.74;99315.09;1734941;82;21090;-81
2021/07/05 05:16:48;;;;;;;12.35;9.15;;;;;;;25.12;74.53;99312.02;1723987;82;21115;-81
2021/07/05 05:19:16;;;;;;;16.65;8.80;;;;;;;25.37;72.59;99307.98;1735649;82;21085;-81
2021/07/05 05:21:43;;;;;;;11.03;8.45;;;;;;;25.51;72.58;99296.48;1736909;82;21072;-82
2021/07/05 05:24:10;;;;;;;11.10;8.75;;;;;;;25.73;72.03;99295.73;1668425;85;21498;-81
2021/07/05 05:26:37;;;;;;;10.08;8.33;;;;;;;25.92;71.11;99296.36;1669884;85;21533;-82
2021/07/05 05:29:04;;;;;;;9.60;8.58;;;;;;;26.00;70.04;99294.12;1680053;83;21124;-88
2021/07/05 05:31:33;;;;;;;12.43;8.25;;;;;;;26.04;70.17;99304.89;1675803;84;21125;-86
2021/07/05 05:34:00;;;;;;;12.90;8.28;;;;;;;26.21;70.09;99310.55;1680336;84;21533;-86
2021/07/05 05:36:27;;;;;;;11.10;8.25;;;;;;;26.47;68.89;99300.75;1688102;84;21137;-88
2021/07/05 05:38:54;;;;;;;11.60;8.55;;;;;;;26.70;66.86;99309.39;1688181;84;21583;-87
2021/07/05 05:41:21;;;;;;;13.60;8.23;;;;;;;26.71;66.49;99311.06;1685693;84;21127;-86
2021/07/05 05:43:48;;;;;;;12.45;8.08;;;;;;;26.75;67.00;99313.73;1679584;84;21574;-86
2021/07/05 05:46:15;;;;;;;10.80;7.80;;;;;;;26.83;65.58;99313.69;1718521;82;21063;-85
2021/07/05 05:48:44;;;;;;;10.15;8.23;;;;;;;26.94;65.47;99317.30;1708814;82;21053;-86
2021/07/05 05:51:11;;;;;;;11.57;6.87;;;;;;;27.12;65.00;99314.77;1720748;82;21023;-87
2021/07/05 05:53:38;;;;;;;10.63;7.78;;;;;;;27.25;64.13;99316.36;1717249;82;21821;-87
2021/07/05 05:56:05;;;;;;;9.25;7.53;;;;;;;27.55;64.35;99313.16;1707745;81;21029;-87
2021/07/05 05:58:39;;;;;;;9.13;8.13;;;;;;;27.77;61.98;99314.11;1728534;82;21531;-84
2021/07/05 06:01:02;;;;;;;12.93;8.05;;;;;;;28.01;62.16;99314.84;1721732;82;21046;-88
2021/07/05 06:03:29;;;;;;;11.10;8.45;;;;;;;28.30;61.53;99311.73;1713748;81;21125;-80
2021/07/05 06:05:56;;;;;;;11.63;7.60;;;;;;;28.61;60.19;99304.17;1719144;82;21487;-83
2021/07/05 06:08:24;;;;;;;9.63;7.65;;;;;;;28.86;59.50;99302.43;1721679;81;21652;-83
2021/07/05 06:10:51;;;;;;;10.48;7.75;;;;;;;29.26;58.54;99297.34;1726994;82;21039;-82
2021/07/05 06:13:18;;;;;;;11.55;7.70;;;;;;;29.59;57.54;99300.80;1717217;82;22193;-84
2021/07/05 06:15:45;;;;;;;10.63;7.65;;;;;;;29.80;56.47;99300.72;1658870;85;21093;-83
2021/07/05 06:18:12;;;;;;;12.45;7.75;;;;;;;29.98;55.95;99302.89;1716754;82;21743;-84
2021/07/05 06:20:40;;;;;;;11.57;7.83;;;;;;;30.09;53.86;99300.95;1697311;83;21089;-83
2021/07/05 06:23:15;;;;;;;11.45;7.78;;;;;;;30.00;54.23;99293.16;1701802;82;21050;-84
2021/07/05 06:25:38;;;;;;;11.33;7.12;;;;;;;29.96;54.50;99287.84;1683288;84;21051;-83
2021/07/05 06:28:05;;;;;;;9.30;7.25;;;;;;;30.01;54.47;99288.90;1666496;85;21067;-83
2021/07/05 06:30:32;;;;;;;9.85;7.25;;;;;;;30.17;53.39;99290.41;1723881;82;21531;-83
2021/07/05 06:32:59;;;;;;;9.70;7.53;;;;;;;30.42;53.08;99293.97;1724099;82;21058;-83
2021/07/05 06:35:27;;;;;;;11.53;7.12;;;;;;;30.57;52.48;99292.41;1727041;82;21038;-84
2021/07/05 06:37:54;;;;;;;12.82;6.90;;;;;;;30.66;52.15;99297.43;1730965;82;21069;-84
2021/07/05 06:40:21;;;;;;;9.48;6.37;;;;;;;31.09;50.60;99290.79;1726758;82;21567;-83
2021/07/05 06:42:48;;;;;;;11.55;6.97;;;;;;;31.09;50.60;99290.79;1736457;82;21585;-82
2021/07/05 06:45:15;;;;;;;13.05;7.22;;;;;;;31.39;49.11;99292.52;1737189;82;21095;-82
2021/07/05 06:48:47;;;;;;;13.25;7.20;;;;;;;31.35;49.01;99285.83;1864988;74;22576;-84
2021/07/05 06:51:15;;;;;;;13.03;6.92;;;;;;;31.14;49.90;99289.09;1845543;76;22145;-83
2021/07/05 06:53:42;;;;;;;8.35;6.22;;;;;;;31.03;51.51;99292.45;1855274;76;22229;-81
2021/07/05 06:56:09;;;;;;;9.45;6.87;;;;;;;31.18;50.88;99287.34;1836267;76;21024;-85
2021/07/05 06:58:37;;;;;;;10.05;6.33;;;;;;;31.29;50.36;99291.61;1845338;76;21534;-84
2021/07/05 07:01:04;;;;;;;10.70;7.12;;;;;;;31.40;49.77;99290.09;1846104;76;21014;-87
2021/07/05 07:03:31;;;;;;;13.32;7.03;;;;;;;31.41;49.38;99289.09;1853235;76;21096;-86
2021/07/05 07:05:59;;;;;;;8.48;6.35;;;;;;;31.08;49.76;99288.60;1813546;77;21470;-86
2021/07/05 07:08:28;;;;;;;8.48;6.05;;;;;;;30.94;50.90;99288.27;1849757;76;21013;-88
2021/07/05 07:10:55;;;;;;;7.33;6.15;;;;;;;31.00;49.95;99280.65;1843748;76;21021;-85
2021/07/05 07:13:24;;;;;;;8.35;5.80;;;;;;;31.30;49.38;99276.94;1846673;76;21021;-85
2021/07/05 07:15:58;;;;;;;11.08;6.15;;;;;;;31.61;49.29;99281.39;1856106;76;21024;-86
2021/07/05 07:18:45;;;;;;;12.80;5.85;;;;;;;31.76;48.68;99275.17;1827990;76;21120;-87
2021/07/05 07:21:03;;;;;;;9.15;5.60;;;;;;;31.81;48.18;99272.63;1842633;76;22097;-88
2021/07/05 07:23:31;;;;;;;;;;;;;;;31.92;47.46;99276.58;1851794;76;21087;-79
2021/07/05 07:25:58;;;;;;;7.70;5.65;;;;;;;32.00;47.12;99276.87;1840307;76;20202;-86
2021/07/05 07:28:25;;;;;;;16.17;6.20;;;;;;;32.21;47.67;99275.20;1843280;76;20990;-86
2021/07/05 07:30:53;;;;;;;8.80;6.05;;;;;;;32.57;46.15;99273.73;1860244;76;21061;-85
2021/07/05 07:33:20;;;;;;;9.55;5.00;;;;;;;32.82;45.70;99271.02;1883853;76;20982;-87
2021/07/05 07:35:47;;;;;;;8.45;4.78;;;;;;;32.99;44.29;99276.73;1810716;79;21080;-84
2021/07/05 07:38:16;;;;;;;9.28;5.20;;;;;;;32.78;44.25;99278.83;1792580;79;21004;-87
2021/07/05 07:40:44;;;;;;;8.65;5.25;;;;;;;32.60;44.80;99277.37;1794226;79;21064;-85
2021/07/05 07:43:11;;;;;;;9.85;3.75;;;;;;;32.66;45.21;99272.41;1798350;79;22162;-85
2021/07/05 07:45:39;;;;;;;8.08;4.95;;;;;;;32.86;41.73;99269.52;1809298;79;22191;-87
2021/07/05 07:48:06;;;;;;;8.63;5.08;;;;;;;33.03;42.84;99269.78;1831168;78;21585;-86
2021/07/05 07:50:33;;;;;;;11.33;5.28;;;;;;;32.89;43.54;99270.97;1791762;79;22036;-86
2021/07/05 07:53:00;;;;;;;7.50;4.53;;;;;;;33.01;43.84;99270.53;1802828;78;21087;-84
2021/07/05 07:55:26;;;;;;;8.93;4.80;;;;;;;33.14;42.12;99275.91;1785330;80;21094;-88
2021/07/05 07:57:56;;;;;;;8.35;4.37;;;;;;;33.13;41.96;99275.61;1784348;79;21123;-87
2021/07/05 08:00:29;;;;;;;11.28;5.08;;;;;;;33.08;42.21;99281.42;1766236;79;20997;-88
2021/07/05 08:02:53;;;;;;;;;;;;;;;33.14;42.92;99282.72;1777521;78;21218;-80
2021/07/05 08:05:20;;;;;;;11.38;4.50;;;;;;;33.18;41.71;99285.31;1769285;78;20528;-82
2021/07/05 08:07:48;;;;;;;11.68;4.78;;;;;;;32.97;40.05;99288.42;1784496;79;21634;-85
2021/07/05 08:10:16;;;;;;;8.43;4.40;;;;;;;32.88;42.00;99291.13;1778753;79;21095;-84
2021/07/05 08:12:46;;;;;;;6.58;3.33;;;;;;;32.99;42.62;99280.33;1793808;79;21294;-86
2021/07/05 08:15:15;;;;;;;6.35;3.80;;;;;;;33.30;40.73;99291.39;1787239;79;21012;-86
2021/07/05 08:17:42;;;;;;;6.50;3.30;;;;;;;33.28;39.83;99288.05;1792386;78;22292;-86
2021/07/05 08:20:11;;;;;;;21.70;4.62;;;;;;;33.17;39.64;99295.91;1779002;80;21122;-85
2021/07/05 08:22:38;;;;;;;7.83;3.50;;;;;;;33.01;40.20;99303.27;1779767;80;21051;-85
2021/07/05 08:25:07;;;;;;;7.30;3.60;;;;;;;32.67;40.58;99299.13;1778965;80;21044;-84
2021/07/05 08:27:34;;;;;;;5.00;3.00;;;;;;;32.47;40.79;99304.70;1779820;79;21131;-83
2021/07/05 08:30:06;;;;;;;9.48;3.87;;;;;;;32.45;40.33;99304.91;1746424;81;21084;-85
2021/07/05 08:32:33;;;;;;;6.90;4.15;;;;;;;32.28;41.76;99297.80;1767153;79;22232;-82
2021/07/05 08:35:00;;;;;;;9.50;4.15;;;;;;;32.15;42.92;99306.03;1830334;78;21022;-85
2021/07/05 08:37:27;;;;;;;6.45;3.77;;;;;;;31.98;43.80;99295.64;1828025;78;21539;-84
2021/07/05 08:39:56;;;;;;;5.30;3.80;;;;;;;32.04;43.86;99295.81;1823182;78;21120;-84
2021/07/05 08:42:25;;;;;;;13.28;4.22;;;;;;;32.28;42.65;99293.71;1795351;78;21107;-86
2021/07/05 08:44:54;;;;;;;7.60;3.95;;;;;;;32.32;41.62;99296.28;1803578;78;21542;-87
2021/07/05 08:47:21;;;;;;;11.22;4.58;;;;;;;32.19;42.21;99290.93;1785493;78;21591;-88
2021/07/05 08:49:48;;;;;;;16.57;4.78;;;;;;;31.92;42.16;99296.46;1783105;80;21006;-87
2021/07/05 08:52:17;;;;;;;6.85;3.85;;;;;;;31.73;43.52;99294.66;1785954;80;21076;-87
2021/07/05 08:54:45;;;;;;;5.15;3.30;;;;;;;31.54;43.69;99291.80;1796894;79;21037;-86
2021/07/05 08:57:59;;;;;;;8.18;3.87;;;;;;;31.44;43.14;99298.19;1790985;78;21135;-85
2021/07/05 08:59:45;;;;;;;6.08;3.92;;;;;;;31.46;44.00;99293.38;1746856;80;21037;-84
2021/07/05 09:02:12;;;;;;;6.92;4.20;;;;;;;31.56;44.22;99292.42;1756611;81;21091;-82
2021/07/05 09:04:40;;;;;;;8.40;3.95;;;;;;;31.47;43.88;99296.42;1787123;79;21050;-83
2021/07/05 09:07:07;;;;;;;6.03;3.62;;;;;;;31.09;44.02;99299.78;1800943;79;21528;-83
2021/07/05 09:09:35;;;;;;;8.28;4.25;;;;;;;30.84;44.70;99295.99;1817039;78;21510;-83
2021/07/05 09:12:06;;;;;;;11.57;4.28;;;;;;;30.88;46.01;99291.84;1801059;79;21082;-85
2021/07/05 09:14:35;;;;;;;6.05;4.22;;;;;;;30.91;45.85;99298.22;1816887;79;21009;-82
2021/07/05 09:17:09;;;;;;;11.18;4.85;;;;;;;30.84;46.13;99298.70;1817218;79;28080;-83
2021/07/05 09:19:39;;;;;;;7.62;3.85;;;;;;;30.59;45.97;99304.73;1809799;79;21556;-83
2021/07/05 09:22:09;;;;;;;9.25;4.03;;;;;;;30.37;46.35;99307.30;1751050;78;21056;-83
2021/07/05 09:24:42;;;;;;;5.25;4.00;;;;;;;30.33;45.86;99303.34;1798578;79;21048;-83
2021/07/05 09:27:25;;;;;;;6.12;4.08;;;;;;;30.43;45.67;99298.34;1808291;78;21033;-86
2021/07/05 09:29:52;;;;;;;6.67;3.98;;;;;;;30.64;44.58;99310.38;1798869;78;21040;-85
2021/07/05 09:32:29;;;;;;;7.60;3.80;;;;;;;30.70;45.00;99303.30;1801662;78;21611;-83
2021/07/05 09:34:56;;;;;;;7.20;3.60;;;;;;;30.94;46.07;99303.22;1795217;79;21060;-82
2021/07/05 09:37:27;;;;;;;5.47;3.55;;;;;;;31.33;45.01;99297.44;1807087;79;21048;-86
2021/07/05 09:40:08;;;;;;;9.18;3.37;;;;;;;31.67;43.35;99305.87;1771736;79;21053;-83
2021/07/05 09:42:42;;;;;;;9.58;3.90;;;;;;;31.84;42.41;99303.53;1789666;78;21021;-83
2021/07/05 09:45:30;;;;;;;7.40;3.85;;;;;;;32.02;43.03;99304.73;1801800;79;21154;-85
2021/07/05 09:48:18;;;;;;;6.97;3.83;;;;;;;31.91;43.89;99307.05;1794327;78;21486;-84
2021/07/05 09:50:53;;;;;;;7.92;3.45;;;;;;;32.28;42.85;99295.07;1767838;80;21050;-84
2021/07/05 09:53:48;;;;;;;5.60;3.50;;;;;;;32.63;40.14;99297.39;1764440;80;21505;-86
2021/07/05 09:56:26;;;;;;;6.90;3.12;;;;;;;32.77;41.34;99298.95;1787496;79;21084;-85
2021/07/05 09:59:02;;;;;;;11.97;3.90;;;;;;;32.96;38.94;99292.20;1740799;80;21065;-85
2021/07/05 10:01:45;;;;;;;6.30;3.50;;;;;;;33.09;39.93;99297.56;1770918;80;21749;-85
2021/07/05 10:04:27;;;;;;;13.43;3.55;;;;;;;33.15;39.55;99299.41;1792344;78;21003;-85
2021/07/05 10:06:58;;;;;;;6.30;3.60;;;;;;;33.06;39.77;99295.80;1727277;82;21099;-87
2021/07/05 10:09:41;;;;;;;8.85;3.10;;;;;;;32.96;39.41;99285.37;1739161;81;21070;-85
2021/07/05 10:12:31;;;;;;;8.33;2.95;;;;;;;33.10;39.11;99297.86;1765680;81;21005;-84
2021/07/05 10:15:09;;;;;;;11.73;3.27;;;;;;;33.32;38.87;99297.47;1761729;79;21476;-88
2021/07/05 10:17:45;;;;;;;5.30;3.20;;;;;;;33.57;38.05;99298.27;1775738;79;21013;-87
2021/07/05 10:20:24;;;;;;;7.08;2.90;;;;;;;33.27;37.88;99300.87;1776540;79;21026;-87
2021/07/05 10:22:55;;;;;;;5.75;3.27;;;;;;;32.76;39.08;99298.66;1772232;79;20986;-87
2021/07/05 10:25:26;;;;;;;7.03;3.72;;;;;;;32.79;39.53;99292.75;1751133;81;21026;-85
2021/07/05 10:27:53;;;;;;;7.42;2.92;;;;;;;33.08;39.58;99283.61;1730149;81;21086;-87
2021/07/05 10:30:21;;;;;;;7.95;3.25;;;;;;;33.19;38.70;99285.60;1746205;81;21536;-89
2021/07/05 10:32:49;;;;;;;7.12;3.20;;;;;;;33.40;38.04;99278.05;1767558;80;21082;-86
2021/07/05 10:35:20;;;;;;;6.78;3.30;;;;;;;33.61;38.13;99277.66;1758118;79;21288;-88
2021/07/05 10:38:12;;;;;;;9.10;2.98;;;;;;;33.78;37.71;99278.41;1787052;79;21033;-83
2021/07/05 10:40:47;;;;;;;21.85;4.00;;;;;;;33.48;37.95;99283.77;1783724;79;21142;-87
2021/07/05 10:43:22;;;;;;;5.08;2.65;;;;;;;32.87;38.77;99298.98;1774505;79;21037;-85
2021/07/05 10:46:00;;;;;;;6.97;2.70;;;;;;;32.38;39.51;99292.69;1775858;79;21125;-84
2021/07/05 10:48:43;;;;;;;12.00;3.17;;;;;;;32.03;39.56;99296.88;1772511;78;21649;-85
2021/07/05 10:51:14;;;;;;;8.83;3.30;;;;;;;31.33;40.79;99292.83;1796061;78;21406;-84
2021/07/05 10:53:52;;;;;;;7.40;3.00;;;;;;;30.81;42.12;99293.70;1790156;78;21116;-81
2021/07/05 10:56:44;;;;;;;12.95;3.70;;;;;;;30.55;43.10;99295.32;1726564;80;21063;-86
2021/07/05 10:59:17;;;;;;;14.20;3.60;;;;;;;30.26;44.36;99302.80;1781898;79;21040;-86
2021/07/05 11:01:47;;;;;;;13.55;3.87;;;;;;;30.16;44.40;99305.55;1774692;79;21109;-85
2021/07/05 11:04:30;;;;;;;9.55;3.42;;;;;;;30.29;44.60;99293.40;1775887;79;21045;-83
2021/07/05 11:07:16;;;;;;;4.90;3.00;;;;;;;30.71;43.47;99279.14;1777478;79;21073;-88
2021/07/05 11:09:53;;;;;;;9.50;3.30;;;;;;;31.23;42.54;99284.28;1774884;79;21060;-84
2021/07/05 11:12:30;;;;;;;5.25;3.00;;;;;;;31.46;41.62;99286.56;1779376;79;22164;-85
2021/07/05 11:14:59;;;;;;;9.48;3.72;;;;;;;31.55;41.71;99281.20;1778257;79;21566;-85
2021/07/05 11:17:29;;;;;;;6.20;3.00;;;;;;;31.73;41.71;99282.42;1809547;77;21611;-87
2021/07/05 11:19:57;;;;;;;6.00;3.12;;;;;;;32.03;40.91;99288.19;1810757;79;21623;-86
2021/07/05 11:22:28;;;;;;;6.65;3.40;;;;;;;32.19;40.71;99286.84;1800236;78;21068;-85
2021/07/05 11:25:19;;;;;;;10.40;3.33;;;;;;;32.22;40.45;99279.59;1789022;79;21114;-84
2021/07/05 11:28:01;;;;;;;8.25;3.12;;;;;;;32.28;40.50;99284.17;1765057;81;21053;-86
2021/07/05 11:30:38;;;;;;;7.75;3.20;;;;;;;32.17;39.83;99284.86;1779461;79;21053;-85
2021/07/05 11:33:13;;;;;;;13.38;3.10;;;;;;;31.67;40.41;99287.34;1773466;79;21508;-84